Time;durP1;ratioP1;P1;durP2;ratioP2;P2;SDS_P1;SDS_P2;PMS_P1;PMS_P2;Temp;Humidity;BMP_temperature;BMP_pressure;BME280_temperature;BME280_humidity;BME280_pressure;Samples;Min_cycle;Max_cycle;Signal;HPM_P1;HPM_P2
2022/06/19 00:01:55;;;;;;;12.05;2.97;;;17.00;55.60;;;;;;5054306;28;20045;-64
2022/06/19 00:04:21;;;;;;;10.25;2.65;;;17.00;55.80;;;;;;5054155;28;20067;-68
2022/06/19 00:06:47;;;;;;;11.02;3.00;;;17.00;55.90;;;;;;5054156;28;20527;-68
2022/06/19 00:09:15;;;;;;;13.80;3.15;;;16.90;56.10;;;;;;5054621;28;20056;-69
2022/06/19 00:11:41;;;;;;;10.48;2.72;;;16.90;56.20;;;;;;5037310;28;20049;-69
2022/06/19 00:14:08;;;;;;;11.55;2.30;;;16.90;56.40;;;;;;5054153;28;20136;-69
2022/06/19 00:16:34;;;;;;;14.77;2.92;;;16.90;56.80;;;;;;5054288;28;20419;-68
2022/06/19 00:19:00;;;;;;;12.43;2.58;;;16.90;56.60;;;;;;5049677;28;20083;-68
2022/06/19 00:21:26;;;;;;;12.82;2.80;;;16.90;56.60;;;;;;5054267;28;20081;-68
2022/06/19 00:23:52;;;;;;;12.57;2.42;;;16.90;56.70;;;;;;5054595;28;20044;-69
2022/06/19 00:26:17;;;;;;;13.02;3.30;;;16.90;56.80;;;;;;5053798;28;20091;-68
2022/06/19 00:28:46;;;;;;;15.48;3.30;;;16.90;56.80;;;;;;5053910;28;20041;-68
2022/06/19 00:31:12;;;;;;;12.65;2.53;;;17.00;57.00;;;;;;5053929;28;20144;-68
2022/06/19 00:33:38;;;;;;;9.05;2.10;;;17.00;57.00;;;;;;5053317;28;20131;-69
2022/06/19 00:36:04;;;;;;;7.95;2.25;;;16.90;57.00;;;;;;5054013;28;20134;-69
2022/06/19 00:38:30;;;;;;;11.40;2.45;;;17.00;57.10;;;;;;5053650;28;20040;-68
2022/06/19 00:40:57;;;;;;;15.10;3.97;;;17.00;57.10;;;;;;5053317;28;20103;-69
2022/06/19 00:43:24;;;;;;;12.23;2.60;;;17.00;57.10;;;;;;5053461;28;20126;-68
2022/06/19 00:45:50;;;;;;;10.60;2.70;;;17.00;57.10;;;;;;5054900;28;20045;-68
2022/06/19 00:48:23;;;;;;;10.75;2.00;;;17.00;57.10;;;;;;5054879;28;20033;-68
2022/06/19 00:50:51;;;;;;;11.23;2.45;;;17.00;57.10;;;;;;5053253;28;20052;-68
2022/06/19 00:53:20;;;;;;;10.80;2.25;;;17.00;57.00;;;;;;5054526;28;20037;-68
2022/06/19 00:55:48;;;;;;;9.63;2.30;;;17.00;57.00;;;;;;5053040;28;20044;-68
2022/06/19 00:58:20;;;;;;;13.65;2.58;;;17.10;56.90;;;;;;5061461;28;20116;-68
2022/06/19 01:00:51;;;;;;;11.57;2.53;;;17.10;56.80;;;;;;5054115;28;20044;-68
2022/06/19 01:03:25;;;;;;;8.40;2.33;;;17.10;56.70;;;;;;5053339;28;20049;-69
2022/06/19 01:05:51;;;;;;;8.88;2.13;;;17.10;56.40;;;;;;5052898;28;20045;-68
2022/06/19 01:08:16;;;;;;;8.55;2.90;;;17.10;56.40;;;;;;5054666;28;20036;-68
2022/06/19 01:10:45;;;;;;;8.50;1.80;;;17.10;56.40;;;;;;5054257;28;20389;-68
2022/06/19 01:13:14;;;;;;;8.98;2.25;;;17.10;56.30;;;;;;5036136;28;20500;-68
2022/06/19 01:15:40;;;;;;;9.52;2.63;;;17.20;56.10;;;;;;5053121;28;20428;-68
2022/06/19 01:18:08;;;;;;;10.95;3.22;;;17.20;55.90;;;;;;5053036;28;20040;-68
2022/06/19 01:20:36;;;;;;;8.20;2.00;;;17.30;55.70;;;;;;5052633;28;20041;-68
2022/06/19 01:23:37;;;;;;;8.82;1.77;;;17.30;55.40;;;;;;5052595;28;20119;-69
2022/06/19 01:26:04;;;;;;;8.05;1.85;;;17.30;54.60;;;;;;5052264;28;20503;-68
2022/06/19 01:28:54;;;;;;;6.22;1.30;;;17.30;54.00;;;;;;5052827;28;20477;-69
2022/06/19 01:31:27;;;;;;;5.07;1.30;;;17.30;53.40;;;;;;5038421;28;20452;-68
2022/06/19 01:34:27;;;;;;;7.82;1.10;;;17.30;52.70;;;;;;5053802;28;20083;-68
2022/06/19 01:36:54;;;;;;;7.10;1.13;;;17.30;52.10;;;;;;5051373;28;20380;-68
2022/06/19 01:39:21;;;;;;;8.43;1.98;;;17.30;52.00;;;;;;5051582;28;20431;-68
2022/06/19 01:41:46;;;;;;;8.52;1.60;;;17.20;51.80;;;;;;5038434;28;20178;-69
2022/06/19 01:44:12;;;;;;;7.25;1.67;;;17.20;52.30;;;;;;5035661;28;20524;-68
2022/06/19 01:46:37;;;;;;;8.18;2.15;;;17.20;52.50;;;;;;5036111;28;20049;-69
2022/06/19 01:49:03;;;;;;;7.28;1.90;;;17.20;52.50;;;;;;5052346;28;20123;-69
2022/06/19 01:51:29;;;;;;;7.13;2.30;;;17.10;52.50;;;;;;5035726;28;20033;-68
2022/06/19 01:54:20;;;;;;;7.25;1.60;;;17.10;53.00;;;;;;5052609;28;20135;-69
2022/06/19 01:56:46;;;;;;;8.13;1.40;;;17.10;53.20;;;;;;5051518;28;20051;-70
2022/06/19 01:59:12;;;;;;;6.38;1.85;;;17.00;53.40;;;;;;5052722;28;20063;-69
2022/06/19 02:01:39;;;;;;;10.55;2.35;;;17.00;53.50;;;;;;5052110;28;20396;-71
2022/06/19 02:04:06;;;;;;;8.95;1.73;;;17.00;53.60;;;;;;5051587;28;20099;-70
2022/06/19 02:06:40;;;;;;;8.65;2.40;;;16.90;53.70;;;;;;5053074;28;20149;-69
2022/06/19 02:09:06;;;;;;;11.82;2.38;;;16.90;54.10;;;;;;5035243;28;20057;-69
2022/06/19 02:11:34;;;;;;;7.80;1.90;;;16.90;54.20;;;;;;5052918;28;20102;-68
2022/06/19 02:14:02;;;;;;;7.50;1.55;;;16.90;54.30;;;;;;5051648;28;20083;-68
2022/06/19 02:16:28;;;;;;;10.55;1.67;;;16.90;54.50;;;;;;5051026;28;20052;-68
2022/06/19 02:18:54;;;;;;;6.82;1.95;;;16.90;54.70;;;;;;5051863;28;20482;-70
2022/06/19 02:21:40;;;;;;;8.70;1.92;;;16.90;54.80;;;;;;5055895;28;20132;-68
2022/06/19 02:24:09;;;;;;;8.73;1.98;;;16.90;55.40;;;;;;5038297;28;20102;-68
2022/06/19 02:26:37;;;;;;;7.80;2.10;;;16.90;55.40;;;;;;5051680;28;20130;-68
2022/06/19 02:29:06;;;;;;;11.00;1.85;;;16.90;55.80;;;;;;5051647;28;20052;-68
2022/06/19 02:31:34;;;;;;;9.18;2.38;;;16.90;56.40;;;;;;5035398;28;20057;-68
2022/06/19 02:34:04;;;;;;;20.60;3.70;;;16.90;56.90;;;;;;5051997;28;20658;-69
2022/06/19 02:36:36;;;;;;;13.57;3.33;;;16.90;58.00;;;;;;5051609;28;20045;-68
2022/06/19 02:39:16;;;;;;;6.22;2.05;;;16.90;58.00;;;;;;5051494;28;20431;-68
2022/06/19 02:42:05;;;;;;;10.63;2.38;;;16.90;58.30;;;;;;5052624;28;20171;-68
2022/06/19 02:44:38;;;;;;;12.45;2.65;;;16.90;58.60;;;;;;5052389;28;20122;-68
2022/06/19 02:47:05;;;;;;;10.38;1.92;;;16.90;58.60;;;;;;5051124;28;20033;-69
2022/06/19 02:49:30;;;;;;;12.85;2.42;;;16.90;58.70;;;;;;5028603;28;20044;-70
2022/06/19 02:51:56;;;;;;;8.73;1.88;;;16.90;59.00;;;;;;5050337;28;20045;-68
2022/06/19 02:54:22;;;;;;;11.02;2.67;;;17.00;59.10;;;;;;5052529;28;20440;-68
2022/06/19 02:56:48;;;;;;;12.23;2.55;;;17.00;59.30;;;;;;5052610;28;20122;-68
2022/06/19 02:59:14;;;;;;;11.82;2.78;;;17.00;59.30;;;;;;5051322;28;20080;-69
2022/06/19 03:01:40;;;;;;;12.02;2.20;;;16.90;59.10;;;;;;5051982;28;20048;-69
2022/06/19 03:04:15;;;;;;;10.73;2.05;;;17.00;59.30;;;;;;5052562;28;20374;-68
2022/06/19 03:06:41;;;;;;;13.05;2.85;;;17.00;59.40;;;;;;5051986;28;20032;-69
2022/06/19 03:09:06;;;;;;;8.45;1.90;;;16.90;59.50;;;;;;5052813;28;20472;-68
2022/06/19 03:11:32;;;;;;;11.25;2.33;;;16.90;59.60;;;;;;5051872;28;20037;-68
2022/06/19 03:13:57;;;;;;;11.75;2.45;;;16.80;59.60;;;;;;5051244;28;20098;-69
2022/06/19 03:16:23;;;;;;;8.40;2.05;;;16.80;59.70;;;;;;5052005;28;20029;-68
2022/06/19 03:18:50;;;;;;;9.77;1.98;;;16.80;59.60;;;;;;5017738;28;20045;-68
2022/06/19 03:21:15;;;;;;;9.25;2.25;;;16.80;59.60;;;;;;5050818;28;20048;-68
2022/06/19 03:23:41;;;;;;;9.52;2.72;;;16.80;59.70;;;;;;5051095;28;20098;-68
2022/06/19 03:26:07;;;;;;;11.05;2.03;;;16.80;59.70;;;;;;5050688;28;20037;-68
2022/06/19 03:28:32;;;;;;;11.45;2.60;;;16.90;59.90;;;;;;5052456;28;20132;-68
2022/06/19 03:30:58;;;;;;;10.52;2.20;;;16.80;59.80;;;;;;5051593;28;20545;-68
2022/06/19 03:33:24;;;;;;;14.07;2.28;;;16.60;60.00;;;;;;5051228;28;20037;-68
2022/06/19 03:35:52;;;;;;;16.00;3.35;;;16.50;60.30;;;;;;5050847;28;20079;-68
2022/06/19 03:38:18;;;;;;;8.00;2.20;;;16.40;60.60;;;;;;5051244;28;20064;-68
2022/06/19 03:40:44;;;;;;;11.25;2.72;;;16.40;60.50;;;;;;5050386;28;20036;-68
2022/06/19 03:43:10;;;;;;;12.05;2.15;;;16.40;60.60;;;;;;5050868;28;20049;-69
2022/06/19 03:45:36;;;;;;;13.07;2.35;;;16.30;60.50;;;;;;5034236;28;20476;-68
2022/06/19 03:48:02;;;;;;;15.45;2.50;;;16.30;60.80;;;;;;5052044;28;20123;-68
2022/06/19 03:50:28;;;;;;;12.90;3.47;;;16.20;60.60;;;;;;5051602;28;20048;-69
2022/06/19 03:52:54;;;;;;;13.68;2.97;;;16.10;61.20;;;;;;5050596;28;20048;-67
2022/06/19 03:55:19;;;;;;;15.23;3.25;;;15.90;61.70;;;;;;5050898;28;20047;-68
2022/06/19 03:57:45;;;;;;;13.02;2.70;;;15.80;62.00;;;;;;5050116;28;20044;-68
2022/06/19 04:00:15;;;;;;;14.50;2.50;;;15.60;62.30;;;;;;5050484;28;20509;-68
2022/06/19 04:02:42;;;;;;;16.83;3.15;;;15.40;63.00;;;;;;5061638;28;20534;-68
2022/06/19 04:05:08;;;;;;;15.48;2.65;;;15.20;63.20;;;;;;5054346;28;20044;-68
2022/06/19 04:07:41;;;;;;;13.57;2.80;;;15.00;64.00;;;;;;5054158;28;20120;-68
2022/06/19 04:10:08;;;;;;;14.68;2.13;;;14.80;64.40;;;;;;5054209;28;20041;-67
2022/06/19 04:12:34;;;;;;;16.20;2.67;;;14.70;64.80;;;;;;5053647;28;20033;-67
2022/06/19 04:14:59;;;;;;;15.35;2.63;;;14.50;65.10;;;;;;5038123;28;20045;-68
2022/06/19 04:17:25;;;;;;;10.55;2.85;;;14.50;65.40;;;;;;5053433;28;20071;-68
2022/06/19 04:19:51;;;;;;;16.73;2.33;;;14.40;65.40;;;;;;5054210;28;20119;-68
2022/06/19 04:22:16;;;;;;;10.60;2.15;;;14.40;65.80;;;;;;5053704;28;20434;-68
2022/06/19 04:24:42;;;;;;;11.98;3.03;;;14.30;66.10;;;;;;5054360;28;20090;-67
2022/06/19 04:27:09;;;;;;;13.73;3.80;;;14.30;66.30;;;;;;5053665;28;20982;-67
2022/06/19 04:29:36;;;;;;;14.57;2.92;;;14.30;66.30;;;;;;5054333;28;20162;-68
2022/06/19 04:32:02;;;;;;;12.27;2.20;;;14.30;66.40;;;;;;5052600;28;20071;-68
2022/06/19 04:34:28;;;;;;;7.57;2.00;;;14.40;66.70;;;;;;5054843;28;20052;-67
2022/06/19 04:36:54;;;;;;;10.88;2.03;;;14.40;66.80;;;;;;5054933;28;20037;-67
2022/06/19 04:39:20;;;;;;;10.38;2.33;;;14.50;66.80;;;;;;5054001;28;20412;-67
2022/06/19 04:41:46;;;;;;;10.60;2.22;;;14.50;66.70;;;;;;5053279;28;20037;-67
2022/06/19 04:44:16;;;;;;;10.38;2.65;;;14.60;66.50;;;;;;5054825;28;20041;-67
2022/06/19 04:46:43;;;;;;;12.32;2.60;;;14.70;66.70;;;;;;5053372;28;20032;-68
2022/06/19 04:49:09;;;;;;;10.50;2.03;;;14.70;66.60;;;;;;5053615;28;20052;-67
2022/06/19 04:51:35;;;;;;;9.52;1.95;;;14.80;66.70;;;;;;5053206;28;20504;-67
2022/06/19 04:54:01;;;;;;;8.18;2.00;;;14.90;66.70;;;;;;5053746;28;20120;-67
2022/06/19 04:56:27;;;;;;;11.35;2.33;;;15.00;66.70;;;;;;5054585;28;20044;-68
2022/06/19 04:58:52;;;;;;;9.20;2.15;;;15.10;66.70;;;;;;5054633;28;20098;-68
2022/06/19 05:01:27;;;;;;;8.15;2.53;;;15.20;67.00;;;;;;5036662;28;20459;-67
2022/06/19 05:03:55;;;;;;;11.10;2.03;;;15.20;66.70;;;;;;5031445;28;20421;-63
2022/06/19 05:06:22;;;;;;;15.52;3.35;;;15.30;66.50;;;;;;5053144;28;20411;-63
2022/06/19 05:08:48;;;;;;;9.07;2.22;;;15.40;66.50;;;;;;5053097;28;20049;-63
2022/06/19 05:11:14;;;;;;;9.65;2.10;;;15.40;66.30;;;;;;5052680;28;20481;-63
2022/06/19 05:13:41;;;;;;;12.80;2.50;;;15.40;66.10;;;;;;5052444;28;20167;-63
2022/06/19 05:16:16;;;;;;;12.98;2.67;;;15.40;66.00;;;;;;5054467;28;20089;-63
2022/06/19 05:18:42;;;;;;;12.00;2.95;;;15.50;66.10;;;;;;5053101;28;20032;-63
2022/06/19 05:21:08;;;;;;;11.40;2.20;;;15.50;65.90;;;;;;5051944;28;20098;-63
2022/06/19 05:23:36;;;;;;;10.70;2.92;;;15.50;65.80;;;;;;5053674;28;20090;-63
2022/06/19 05:26:18;;;;;;;13.90;2.90;;;15.60;65.80;;;;;;5054092;28;20090;-64
2022/06/19 05:28:45;;;;;;;12.75;2.97;;;15.60;65.40;;;;;;5053721;28;20131;-63
2022/06/19 05:31:11;;;;;;;13.13;2.70;;;15.60;65.80;;;;;;5052829;28;20400;-63
2022/06/19 05:33:37;;;;;;;9.48;2.20;;;15.60;65.30;;;;;;5035660;28;20037;-63
2022/06/19 05:36:03;;;;;;;12.80;3.25;;;15.60;65.20;;;;;;5052622;28;20044;-63
2022/06/19 05:38:29;;;;;;;11.38;2.03;;;15.60;65.00;;;;;;5053720;28;20423;-68
2022/06/19 05:40:57;;;;;;;10.10;2.28;;;15.60;64.90;;;;;;5035910;28;20045;-68
2022/06/19 05:43:24;;;;;;;12.98;2.70;;;15.60;64.70;;;;;;5053624;28;20396;-68
2022/06/19 05:45:51;;;;;;;9.20;2.45;;;15.60;64.40;;;;;;5053429;28;20037;-68
2022/06/19 05:48:17;;;;;;;12.27;2.60;;;15.50;64.30;;;;;;5052068;28;20243;-67
2022/06/19 05:50:43;;;;;;;14.70;2.85;;;15.50;64.30;;;;;;5052428;28;20150;-67
2022/06/19 05:53:09;;;;;;;12.15;3.33;;;15.50;64.40;;;;;;5052031;28;20045;-67
2022/06/19 05:55:34;;;;;;;12.23;2.50;;;15.50;64.70;;;;;;5052132;28;20507;-63
2022/06/19 05:58:00;;;;;;;11.10;2.45;;;15.60;64.80;;;;;;5051815;28;20029;-63
2022/06/19 06:00:26;;;;;;;14.57;3.10;;;15.60;64.60;;;;;;5052218;28;20124;-64
2022/06/19 06:02:51;;;;;;;12.05;2.85;;;15.60;64.40;;;;;;5051967;28;20407;-64
2022/06/19 06:05:17;;;;;;;11.48;3.13;;;15.60;64.40;;;;;;5052099;28;20049;-63
2022/06/19 06:07:43;;;;;;;12.25;2.45;;;15.60;64.40;;;;;;5035543;28;20417;-63
2022/06/19 06:10:11;;;;;;;11.25;2.67;;;15.60;64.50;;;;;;5052968;28;20107;-63
2022/06/19 06:12:36;;;;;;;8.07;2.13;;;15.60;64.40;;;;;;5021096;28;20029;-63
2022/06/19 06:15:02;;;;;;;11.48;2.83;;;15.60;64.40;;;;;;5051890;28;20431;-63
2022/06/19 06:17:28;;;;;;;16.77;3.55;;;15.60;64.50;;;;;;5051811;28;20041;-64
2022/06/19 06:19:54;;;;;;;13.05;3.33;;;15.60;64.50;;;;;;5053054;28;20037;-67
2022/06/19 06:22:19;;;;;;;14.30;2.72;;;15.60;64.70;;;;;;5053084;28;20567;-67
2022/06/19 06:24:45;;;;;;;9.95;2.72;;;15.60;64.70;;;;;;5033631;28;20103;-68
2022/06/19 06:27:10;;;;;;;11.52;2.90;;;15.60;64.70;;;;;;5050543;28;20045;-67
2022/06/19 06:29:36;;;;;;;13.98;3.30;;;15.60;64.70;;;;;;5052772;28;20484;-64
2022/06/19 06:32:02;;;;;;;10.88;3.17;;;15.70;64.70;;;;;;5051830;28;20044;-69
2022/06/19 06:34:28;;;;;;;12.32;2.42;;;15.70;64.80;;;;;;5051941;28;20040;-68
2022/06/19 06:36:53;;;;;;;9.55;2.72;;;15.70;64.70;;;;;;5051687;28;20477;-67
2022/06/19 06:39:20;;;;;;;14.07;3.22;;;15.70;64.80;;;;;;5051293;28;20044;-68
2022/06/19 06:41:46;;;;;;;14.82;3.42;;;15.70;64.70;;;;;;5040261;28;20049;-68
2022/06/19 06:44:13;;;;;;;8.93;2.55;;;15.70;64.70;;;;;;5051129;28;20037;-67
2022/06/19 06:46:39;;;;;;;12.73;2.72;;;15.70;64.60;;;;;;5051172;28;20488;-68
2022/06/19 06:49:05;;;;;;;12.15;2.72;;;15.70;64.60;;;;;;5051215;28;20591;-67
2022/06/19 06:51:31;;;;;;;11.18;2.95;;;15.80;64.90;;;;;;5051196;28;20124;-67
2022/06/19 06:53:58;;;;;;;15.07;2.55;;;15.70;64.90;;;;;;5050939;28;20037;-68
2022/06/19 06:56:25;;;;;;;17.73;3.80;;;15.80;64.80;;;;;;5045294;28;20493;-69
2022/06/19 06:58:51;;;;;;;12.70;2.80;;;15.70;64.60;;;;;;5051091;28;20041;-68
2022/06/19 07:01:20;;;;;;;16.83;3.15;;;15.70;64.60;;;;;;5051394;28;20468;-68
2022/06/19 07:03:49;;;;;;;14.57;3.17;;;15.70;64.60;;;;;;5050859;28;20048;-68
2022/06/19 07:06:15;;;;;;;12.50;2.67;;;15.70;64.40;;;;;;5050366;28;20127;-68
2022/06/19 07:08:41;;;;;;;14.27;3.67;;;15.70;64.20;;;;;;5050086;28;20045;-69
2022/06/19 07:11:13;;;;;;;20.17;3.47;;;15.70;64.30;;;;;;5050983;28;20045;-68
2022/06/19 07:13:39;;;;;;;14.75;2.78;;;15.70;64.30;;;;;;5051529;28;20094;-68
2022/06/19 07:16:05;;;;;;;10.23;2.55;;;15.70;64.30;;;;;;5052010;28;20041;-68
2022/06/19 07:18:30;;;;;;;10.57;2.60;;;15.70;64.20;;;;;;5051266;28;20067;-68
2022/06/19 07:20:56;;;;;;;15.30;3.33;;;15.70;64.20;;;;;;5050489;28;20147;-68
2022/06/19 07:23:22;;;;;;;17.98;4.15;;;15.80;64.50;;;;;;5052092;28;20119;-68
2022/06/19 07:25:47;;;;;;;13.35;2.75;;;15.80;64.70;;;;;;5052031;28;20450;-69
2022/06/19 07:28:15;;;;;;;14.77;4.00;;;15.80;64.70;;;;;;5051005;28;20128;-68
2022/06/19 07:30:42;;;;;;;11.93;2.80;;;15.90;64.70;;;;;;5052353;28;20045;-66
2022/06/19 07:33:08;;;;;;;16.08;3.45;;;15.90;64.60;;;;;;5050183;28;20438;-65
2022/06/19 07:35:33;;;;;;;16.33;3.38;;;15.90;65.00;;;;;;5061316;28;20044;-65
2022/06/19 07:37:59;;;;;;;9.75;2.45;;;16.00;64.40;;;;;;5065517;28;20033;-66
2022/06/19 07:40:26;;;;;;;10.50;2.60;;;16.00;64.10;;;;;;5067852;28;20534;-67
2022/06/19 07:42:52;;;;;;;11.80;2.58;;;16.00;63.90;;;;;;5070545;28;20036;-66
2022/06/19 07:45:17;;;;;;;8.98;2.50;;;16.10;64.00;;;;;;5066300;28;20040;-67
2022/06/19 07:50:28;;;;;;;8.88;2.15;;;16.10;63.90;;;;;;5065654;28;20045;-66
2022/06/19 07:52:54;;;;;;;7.00;2.50;;;16.20;63.80;;;;;;5070893;28;20044;-67
2022/06/19 07:55:23;;;;;;;12.70;2.78;;;16.20;63.60;;;;;;5050107;28;20111;-68
2022/06/19 07:57:49;;;;;;;9.38;2.65;;;16.30;63.70;;;;;;5067505;28;20032;-67
2022/06/19 08:00:22;;;;;;;12.40;2.50;;;16.40;63.70;;;;;;5067784;28;20484;-68
2022/06/19 08:02:49;;;;;;;10.35;2.28;;;16.40;63.70;;;;;;5070170;28;20044;-68
2022/06/19 08:05:16;;;;;;;11.60;2.88;;;16.50;63.70;;;;;;5063685;28;20048;-69
2022/06/19 08:07:42;;;;;;;11.07;2.33;;;16.50;64.00;;;;;;5068094;28;20044;-63
2022/06/19 08:10:13;;;;;;;9.48;2.53;;;16.60;64.10;;;;;;5065831;28;20392;-67
2022/06/19 08:12:39;;;;;;;12.57;3.65;;;16.60;64.00;;;;;;5067381;28;20039;-66
2022/06/19 08:15:07;;;;;;;9.68;2.30;;;16.60;64.00;;;;;;5063283;28;20040;-65
2022/06/19 08:17:33;;;;;;;10.43;3.08;;;16.60;64.00;;;;;;5068519;28;20040;-64
2022/06/19 08:19:59;;;;;;;8.40;1.98;;;16.60;64.00;;;;;;5068136;28;20389;-63
2022/06/19 08:22:25;;;;;;;8.23;2.40;;;16.70;64.10;;;;;;5068972;28;20048;-63
2022/06/19 08:24:51;;;;;;;11.90;2.17;;;16.70;64.20;;;;;;5069994;28;20028;-64
2022/06/19 08:27:16;;;;;;;11.05;2.65;;;16.70;64.30;;;;;;5068458;28;20461;-63
2022/06/19 08:29:42;;;;;;;10.25;2.25;;;16.70;64.40;;;;;;5053445;28;20036;-62
2022/06/19 08:32:08;;;;;;;9.77;2.58;;;16.70;64.20;;;;;;5052665;28;20210;-63
2022/06/19 08:34:33;;;;;;;12.02;2.10;;;16.80;64.10;;;;;;5070107;28;20037;-63
2022/06/19 08:37:03;;;;;;;9.90;1.80;;;16.80;64.20;;;;;;5069918;28;20033;-64
2022/06/19 08:39:30;;;;;;;9.85;2.00;;;16.90;64.20;;;;;;5070417;28;20036;-67
2022/06/19 08:42:27;;;;;;;11.57;1.90;;;16.90;64.00;;;;;;5068915;28;20041;-66
2022/06/19 08:44:55;;;;;;;12.13;2.67;;;16.90;63.90;;;;;;5067661;28;20048;-67
2022/06/19 08:47:28;;;;;;;9.30;2.67;;;16.90;63.80;;;;;;5067424;28;20095;-67
2022/06/19 08:50:26;;;;;;;8.52;1.80;;;17.00;63.80;;;;;;5066752;28;20417;-67
2022/06/19 08:53:09;;;;;;;9.05;2.05;;;17.00;63.60;;;;;;5068498;28;20080;-67
2022/06/19 08:55:56;;;;;;;8.65;2.13;;;17.00;63.40;;;;;;5068249;28;20044;-67
2022/06/19 08:58:34;;;;;;;11.73;2.05;;;17.00;63.40;;;;;;5067172;28;20053;-67
2022/06/19 09:01:06;;;;;;;10.02;1.85;;;17.00;63.30;;;;;;5068845;28;20063;-66
2022/06/19 09:07:02;;;;;;;12.23;1.90;;;17.10;63.10;;;;;;5064721;28;20044;-63
2022/06/19 09:09:57;;;;;;;10.07;2.83;;;17.10;63.00;;;;;;5068572;28;20127;-63
2022/06/19 09:12:29;;;;;;;10.93;2.10;;;17.20;62.80;;;;;;5066159;28;20037;-63
2022/06/19 09:15:00;;;;;;;11.98;2.85;;;17.20;62.70;;;;;;5067849;28;20115;-68
2022/06/19 09:17:51;;;;;;;8.10;1.77;;;17.20;62.70;;;;;;5066566;28;20036;-64
2022/06/19 09:20:34;;;;;;;10.88;2.78;;;17.20;62.40;;;;;;5044639;28;20068;-63
2022/06/19 09:23:37;;;;;;;8.68;2.08;;;17.20;62.40;;;;;;5052049;28;20036;-64
2022/06/19 09:26:13;;;;;;;8.45;1.73;;;17.20;62.60;;;;;;5042135;28;20159;-64
2022/06/19 09:29:14;;;;;;;9.30;2.38;;;17.20;62.40;;;;;;5052195;28;20040;-63
2022/06/19 09:31:53;;;;;;;8.73;2.25;;;17.20;62.10;;;;;;5044015;28;20476;-63
2022/06/19 09:34:47;;;;;;;6.95;2.05;;;17.10;62.10;;;;;;5061805;28;20063;-63
2022/06/19 09:37:29;;;;;;;9.32;2.15;;;17.00;62.10;;;;;;5051392;28;20044;-67
2022/06/19 09:40:08;;;;;;;8.38;1.80;;;17.00;62.40;;;;;;5053646;28;20037;-67
2022/06/19 09:42:40;;;;;;;11.00;2.60;;;17.00;62.60;;;;;;5052184;28;20115;-63
2022/06/19 09:45:22;;;;;;;8.50;2.10;;;17.00;62.70;;;;;;5052338;28;20044;-63
2022/06/19 09:48:16;;;;;;;7.88;1.80;;;17.10;62.80;;;;;;5052195;28;20043;-63
2022/06/19 09:50:53;;;;;;;8.43;2.17;;;17.10;63.00;;;;;;5052365;28;20431;-63
2022/06/19 09:53:24;;;;;;;7.60;1.98;;;17.20;61.80;;;;;;5052091;28;20094;-63
2022/06/19 09:55:57;;;;;;;14.20;2.35;;;17.10;62.20;;;;;;5051715;28;20041;-64
2022/06/19 09:58:29;;;;;;;8.93;2.13;;;17.20;62.50;;;;;;5052462;28;20377;-63
2022/06/19 10:00:57;;;;;;;8.77;1.73;;;17.20;61.60;;;;;;5052642;28;20535;-63
2022/06/19 10:03:26;;;;;;;11.13;2.40;;;17.20;61.20;;;;;;5051708;28;20416;-63
2022/06/19 10:05:58;;;;;;;8.57;2.58;;;17.20;61.30;;;;;;5052261;28;20052;-64
2022/06/19 10:08:29;;;;;;;10.82;2.08;;;17.20;61.60;;;;;;5063682;28;20068;-63
2022/06/19 10:11:07;;;;;;;9.80;2.72;;;17.20;61.00;;;;;;5050752;28;20408;-63
2022/06/19 10:13:53;;;;;;;5.28;1.55;;;17.30;60.90;;;;;;5051918;28;20045;-64
2022/06/19 10:16:47;;;;;;;9.57;2.47;;;17.30;61.10;;;;;;5051949;28;20025;-63
2022/06/19 10:19:23;;;;;;;6.82;1.90;;;17.30;61.10;;;;;;5050589;28;20044;-63
2022/06/19 10:22:14;;;;;;;8.45;1.88;;;17.30;61.00;;;;;;5048310;28;20060;-63
2022/06/19 10:25:10;;;;;;;5.97;1.83;;;17.40;61.00;;;;;;5051560;28;20041;-63
2022/06/19 10:27:52;;;;;;;9.00;2.38;;;17.50;61.10;;;;;;5052636;28;20052;-62
2022/06/19 10:30:54;;;;;;;8.70;2.00;;;17.50;60.70;;;;;;5052611;28;20053;-70
2022/06/19 10:33:52;;;;;;;7.38;1.70;;;17.60;60.80;;;;;;5043728;28;20130;-66
2022/06/19 10:36:25;;;;;;;11.32;2.15;;;17.60;60.10;;;;;;5058618;28;20055;-66
2022/06/19 10:39:10;;;;;;;6.97;1.45;;;17.60;59.10;;;;;;5049461;28;20039;-66
2022/06/19 10:45:09;;;;;;;8.60;1.75;;;17.60;59.60;;;;;;5046695;28;20088;-66
2022/06/19 10:48:10;;;;;;;6.97;1.50;;;17.60;58.40;;;;;;5050470;28;20041;-66
2022/06/19 10:50:45;;;;;;;6.32;2.00;;;17.70;58.60;;;;;;5031674;28;20050;-66
2022/06/19 10:53:13;;;;;;;6.53;1.35;;;17.70;58.50;;;;;;5038125;28;20542;-67
2022/06/19 10:55:54;;;;;;;6.80;1.50;;;17.70;58.50;;;;;;5051106;28;20048;-68
2022/06/19 10:58:22;;;;;;;7.55;1.50;;;17.80;58.50;;;;;;5052435;28;20395;-67
2022/06/19 11:00:54;;;;;;;6.78;1.15;;;17.90;58.50;;;;;;5052526;28;20045;-67
2022/06/19 11:04:07;;;;;;;6.43;1.48;;;17.90;58.20;;;;;;5051071;28;20045;-67
2022/06/19 11:06:39;;;;;;;7.50;1.48;;;18.00;57.80;;;;;;5044775;28;20052;-67
2022/06/19 11:09:43;;;;;;;4.32;1.33;;;18.00;57.50;;;;;;5034138;28;20047;-67
2022/06/19 11:12:22;;;;;;;4.78;1.38;;;18.00;57.60;;;;;;5036931;28;20041;-67
2022/06/19 11:14:54;;;;;;;4.35;1.10;;;18.00;57.70;;;;;;5049094;28;20036;-67
2022/06/19 11:17:35;;;;;;;2.78;1.00;;;18.00;57.80;;;;;;5056635;28;20430;-67
2022/06/19 11:20:16;;;;;;;5.30;1.15;;;18.10;58.10;;;;;;5056141;28;20072;-67
2022/06/19 11:22:47;;;;;;;4.25;1.23;;;18.20;57.50;;;;;;5054647;28;20044;-65
2022/06/19 11:25:18;;;;;;;5.38;1.45;;;18.10;57.30;;;;;;5054635;28;20102;-64
2022/06/19 11:28:27;;;;;;;5.28;1.35;;;18.10;57.10;;;;;;5054864;28;20052;-65
2022/06/19 11:31:06;;;;;;;4.15;1.00;;;18.10;56.70;;;;;;5026492;28;20049;-65
2022/06/19 11:33:36;;;;;;;4.57;1.10;;;18.00;57.10;;;;;;5051024;28;20049;-65
2022/06/19 11:36:08;;;;;;;3.90;1.13;;;18.00;57.70;;;;;;5050706;28;20029;-65
2022/06/19 11:38:44;;;;;;;7.05;1.42;;;18.10;57.60;;;;;;5038469;28;20033;-64
2022/06/19 11:41:37;;;;;;;5.70;1.02;;;18.10;56.90;;;;;;5051927;28;20048;-64
2022/06/19 11:44:16;;;;;;;2.70;0.90;;;18.10;57.30;;;;;;5060698;28;20392;-64
2022/06/19 11:47:02;;;;;;;5.70;1.40;;;18.10;57.40;;;;;;5053662;28;20120;-64
2022/06/19 11:49:36;;;;;;;12.45;1.30;;;18.10;57.00;;;;;;5054531;28;20041;-64
2022/06/19 11:52:22;;;;;;;;;;;18.10;57.10;;;;;;5054510;28;20056;-69
2022/06/19 11:54:51;;;;;;;3.85;1.35;;;18.10;57.10;;;;;;5028646;28;19917;-71
2022/06/19 11:57:33;;;;;;;5.82;1.30;;;18.10;57.40;;;;;;5054593;28;20080;-66
2022/06/19 12:00:02;;;;;;;4.85;1.33;;;18.20;56.80;;;;;;5047126;28;20132;-67
2022/06/19 12:02:40;;;;;;;4.97;1.20;;;18.20;57.30;;;;;;5070198;28;20385;-66
2022/06/19 12:05:31;;;;;;;5.05;1.15;;;18.20;57.50;;;;;;5054186;28;20423;-65
2022/06/19 12:08:07;;;;;;;3.80;1.17;;;18.30;57.00;;;;;;5054020;28;20048;-65
2022/06/19 12:10:38;;;;;;;4.47;1.40;;;18.40;56.60;;;;;;5054514;28;20045;-70
2022/06/19 12:13:18;;;;;;;3.80;1.05;;;18.40;56.90;;;;;;5054527;28;20063;-70
2022/06/19 12:15:56;;;;;;;5.35;1.27;;;18.50;57.30;;;;;;5053554;28;20044;-70
2022/06/19 12:18:22;;;;;;;3.75;1.20;;;18.60;57.20;;;;;;5057237;28;20510;-70
2022/06/19 12:21:23;;;;;;;3.95;0.90;;;18.60;57.00;;;;;;5060231;28;20072;-69
2022/06/19 12:24:02;;;;;;;2.55;0.68;;;18.70;56.80;;;;;;5064084;28;20055;-70
2022/06/19 12:26:50;;;;;;;3.65;0.93;;;18.70;56.40;;;;;;5063870;28;20048;-70
2022/06/19 12:29:54;;;;;;;4.43;1.10;;;18.70;55.60;;;;;;5040689;28;20045;-70
2022/06/19 12:32:30;;;;;;;3.38;1.15;;;18.70;55.70;;;;;;5061799;28;20097;-70
2022/06/19 12:35:00;;;;;;;2.80;0.90;;;18.70;56.00;;;;;;5060930;28;20039;-70
2022/06/19 12:37:29;;;;;;;3.35;0.80;;;18.70;56.30;;;;;;5063751;28;20081;-69
2022/06/19 12:39:55;;;;;;;3.85;0.70;;;18.80;56.10;;;;;;5043206;28;20037;-70
2022/06/19 12:42:35;;;;;;;3.53;0.90;;;18.80;55.80;;;;;;5048092;28;20032;-69
2022/06/19 12:45:44;;;;;;;4.18;1.10;;;18.80;55.80;;;;;;5065098;28;20131;-69
2022/06/19 12:48:29;;;;;;;2.60;0.80;;;18.90;56.40;;;;;;5059255;28;20036;-69
2022/06/19 12:51:26;;;;;;;2.88;0.80;;;18.90;56.20;;;;;;5059389;28;20557;-70
2022/06/19 12:54:07;;;;;;;3.85;1.23;;;18.90;56.00;;;;;;5061393;28;20382;-69
2022/06/19 12:56:43;;;;;;;4.30;0.90;;;19.00;56.10;;;;;;5066653;28;20044;-69
2022/06/19 12:59:42;;;;;;;3.20;1.40;;;19.00;56.10;;;;;;5061908;28;20040;-70
2022/06/19 13:02:14;;;;;;;3.20;1.02;;;19.10;56.10;;;;;;5057493;28;20040;-70
2022/06/19 13:05:02;;;;;;;4.20;1.10;;;19.00;55.90;;;;;;5060027;28;20048;-70
2022/06/19 13:07:52;;;;;;;3.45;1.05;;;19.10;55.90;;;;;;5062245;28;20047;-71
2022/06/19 13:10:55;;;;;;;4.28;1.13;;;19.20;55.50;;;;;;5076866;28;20098;-70
2022/06/19 13:13:20;;;;;;;4.60;0.90;;;19.20;55.50;;;;;;5056528;28;20039;-70
2022/06/19 13:16:05;;;;;;;3.65;1.50;;;19.20;55.60;;;;;;5058884;28;20040;-70
2022/06/19 13:18:36;;;;;;;;;;;19.20;55.30;;;;;;5061791;28;20044;-71